Terminal Aerodrome Forecast
Issued by NWS Upton, NY

Home | Current Version | Previous Version | Text Only | Print | Product List | Glossary On
Versions: 1 2 3 4 5 6 7 8 9 10 11 12 13 14 15 16 17 18 19 20 21 22 23 24 25 26 27 28 29 30 31 32 33 34
000
FTUS41 KOKX 150345 AAB
TAFLGA
TAF AMD
KLGA 150345Z 1504/1606 22008KT P6SM SCT025 BKN035
      TEMPO 1504/1506 6SM -SHRA
     FM150600 23006KT P6SM SCT012 OVC025
      TEMPO 1506/1510 6SM -SHRA BKN012
     FM151100 32006KT P6SM BKN030
     FM151300 34006KT P6SM SCT040
     FM151600 27008KT P6SM FEW050
     FM152100 23006KT P6SM FEW050
     FM160100 24004KT P6SM SCT120 BKN250=

USA.gov is the U.S. government's official web portal to all federal, state and local government web resources and services.